sensor_id;sensor_type;location;lat;lon;timestamp;temperature;humidity
37642;DHT22;23486;51.956;5.888;2023-07-13T00:02:06;17.00;99.60
37642;DHT22;23486;51.956;5.888;2023-07-13T00:04:32;17.00;99.70
37642;DHT22;23486;51.956;5.888;2023-07-13T00:06:58;17.00;99.70
37642;DHT22;23486;51.956;5.888;2023-07-13T00:09:24;16.90;99.80
37642;DHT22;23486;51.956;5.888;2023-07-13T00:11:52;16.90;99.90
37642;DHT22;23486;51.956;5.888;2023-07-13T00:14:18;16.90;99.90
37642;DHT22;23486;51.956;5.888;2023-07-13T00:16:44;16.90;99.90
37642;DHT22;23486;51.956;5.888;2023-07-13T00:19:11;16.90;99.90
37642;DHT22;23486;51.956;5.888;2023-07-13T00:21:38;16.90;99.90
37642;DHT22;23486;51.956;5.888;2023-07-13T00:24:05;16.90;99.90
37642;DHT22;23486;51.956;5.888;2023-07-13T00:26:30;17.00;99.90
37642;DHT22;23486;51.956;5.888;2023-07-13T00:28:58;17.00;99.90
37642;DHT22;23486;51.956;5.888;2023-07-13T00:31:24;17.00;99.90
37642;DHT22;23486;51.956;5.888;2023-07-13T00:33:50;16.90;99.90
37642;DHT22;23486;51.956;5.888;2023-07-13T00:36:16;16.90;99.90
37642;DHT22;23486;51.956;5.888;2023-07-13T00:38:41;16.80;99.90
37642;DHT22;23486;51.956;5.888;2023-07-13T00:41:08;16.80;99.90
37642;DHT22;23486;51.956;5.888;2023-07-13T00:43:34;16.70;99.90
37642;DHT22;23486;51.956;5.888;2023-07-13T00:46:09;16.60;99.90
37642;DHT22;23486;51.956;5.888;2023-07-13T00:48:37;16.60;99.90
37642;DHT22;23486;51.956;5.888;2023-07-13T00:51:03;16.60;99.90
37642;DHT22;23486;51.956;5.888;2023-07-13T00:53:31;16.60;99.90
37642;DHT22;23486;51.956;5.888;2023-07-13T00:55:58;16.50;99.90
37642;DHT22;23486;51.956;5.888;2023-07-13T00:58:27;16.50;99.90
37642;DHT22;23486;51.956;5.888;2023-07-13T01:00:53;16.50;99.90
37642;DHT22;23486;51.956;5.888;2023-07-13T01:03:20;16.50;99.90
37642;DHT22;23486;51.956;5.888;2023-07-13T01:05:48;16.50;99.90
37642;DHT22;23486;51.956;5.888;2023-07-13T01:08:14;16.50;99.90
37642;DHT22;23486;51.956;5.888;2023-07-13T01:10:42;16.40;99.90
37642;DHT22;23486;51.956;5.888;2023-07-13T01:13:15;16.40;99.90
37642;DHT22;23486;51.956;5.888;2023-07-13T01:15:46;16.40;99.90
37642;DHT22;23486;51.956;5.888;2023-07-13T01:18:24;16.40;99.90
37642;DHT22;23486;51.956;5.888;2023-07-13T01:21:02;16.30;99.90
37642;DHT22;23486;51.956;5.888;2023-07-13T01:23:30;16.30;99.90
37642;DHT22;23486;51.956;5.888;2023-07-13T01:25:56;16.30;99.90
37642;DHT22;23486;51.956;5.888;2023-07-13T01:28:23;16.30;99.90
37642;DHT22;23486;51.956;5.888;2023-07-13T01:30:53;16.30;99.90
37642;DHT22;23486;51.956;5.888;2023-07-13T01:33:19;16.20;99.90
37642;DHT22;23486;51.956;5.888;2023-07-13T01:35:46;16.20;99.90
37642;DHT22;23486;51.956;5.888;2023-07-13T01:38:14;16.20;99.90
37642;DHT22;23486;51.956;5.888;2023-07-13T01:40:40;16.20;99.90
37642;DHT22;23486;51.956;5.888;2023-07-13T01:43:05;16.20;99.90
37642;DHT22;23486;51.956;5.888;2023-07-13T01:45:31;16.20;99.90
37642;DHT22;23486;51.956;5.888;2023-07-13T01:47:57;16.20;99.90
37642;DHT22;23486;51.956;5.888;2023-07-13T01:50:24;16.20;99.90
37642;DHT22;23486;51.956;5.888;2023-07-13T01:52:49;16.20;99.90
37642;DHT22;23486;51.956;5.888;2023-07-13T01:55:20;16.20;99.90
37642;DHT22;23486;51.956;5.888;2023-07-13T01:57:46;16.20;99.90
37642;DHT22;23486;51.956;5.888;2023-07-13T02:00:13;16.10;99.90
37642;DHT22;23486;51.956;5.888;2023-07-13T02:02:38;16.10;99.90
37642;DHT22;23486;51.956;5.888;2023-07-13T02:05:05;16.10;99.90
37642;DHT22;23486;51.956;5.888;2023-07-13T02:07:31;16.00;99.90
37642;DHT22;23486;51.956;5.888;2023-07-13T02:09:56;15.90;99.90
37642;DHT22;23486;51.956;5.888;2023-07-13T02:12:22;15.90;99.90
37642;DHT22;23486;51.956;5.888;2023-07-13T02:14:48;15.90;99.90
37642;DHT22;23486;51.956;5.888;2023-07-13T02:17:13;15.90;99.90
37642;DHT22;23486;51.956;5.888;2023-07-13T02:19:39;15.90;99.90
37642;DHT22;23486;51.956;5.888;2023-07-13T02:22:06;15.80;99.90
37642;DHT22;23486;51.956;5.888;2023-07-13T02:24:31;15.80;99.90
37642;DHT22;23486;51.956;5.888;2023-07-13T02:26:57;15.80;99.90
37642;DHT22;23486;51.956;5.888;2023-07-13T02:29:23;15.70;99.90
37642;DHT22;23486;51.956;5.888;2023-07-13T02:31:48;15.70;99.90
37642;DHT22;23486;51.956;5.888;2023-07-13T02:34:14;15.70;99.90
37642;DHT22;23486;51.956;5.888;2023-07-13T02:36:40;15.70;99.90
37642;DHT22;23486;51.956;5.888;2023-07-13T02:39:06;15.60;99.90
37642;DHT22;23486;51.956;5.888;2023-07-13T02:41:32;15.60;99.90
37642;DHT22;23486;51.956;5.888;2023-07-13T02:43:58;15.60;99.90
37642;DHT22;23486;51.956;5.888;2023-07-13T02:46:30;15.50;99.90
37642;DHT22;23486;51.956;5.888;2023-07-13T02:48:56;15.50;99.90
37642;DHT22;23486;51.956;5.888;2023-07-13T02:51:21;15.50;99.90
37642;DHT22;23486;51.956;5.888;2023-07-13T02:53:47;15.50;99.90
37642;DHT22;23486;51.956;5.888;2023-07-13T02:56:13;15.50;99.90
37642;DHT22;23486;51.956;5.888;2023-07-13T02:58:38;15.50;99.90
37642;DHT22;23486;51.956;5.888;2023-07-13T03:01:11;15.50;99.90
37642;DHT22;23486;51.956;5.888;2023-07-13T03:03:37;15.40;99.90
37642;DHT22;23486;51.956;5.888;2023-07-13T03:06:04;15.40;99.90
37642;DHT22;23486;51.956;5.888;2023-07-13T03:08:32;15.40;99.90
37642;DHT22;23486;51.956;5.888;2023-07-13T03:11:04;15.40;99.90
37642;DHT22;23486;51.956;5.888;2023-07-13T03:13:31;15.30;99.90
37642;DHT22;23486;51.956;5.888;2023-07-13T03:15:57;15.30;99.90
37642;DHT22;23486;51.956;5.888;2023-07-13T03:18:22;15.30;99.90
37642;DHT22;23486;51.956;5.888;2023-07-13T03:20:51;15.30;99.90
37642;DHT22;23486;51.956;5.888;2023-07-13T03:23:18;15.20;99.90
37642;DHT22;23486;51.956;5.888;2023-07-13T03:25:44;15.30;99.90
37642;DHT22;23486;51.956;5.888;2023-07-13T03:28:11;15.20;99.90
37642;DHT22;23486;51.956;5.888;2023-07-13T03:30:37;15.20;99.90
37642;DHT22;23486;51.956;5.888;2023-07-13T03:33:03;15.20;99.90
37642;DHT22;23486;51.956;5.888;2023-07-13T03:35:28;15.10;99.90
37642;DHT22;23486;51.956;5.888;2023-07-13T03:37:54;15.10;99.90
37642;DHT22;23486;51.956;5.888;2023-07-13T03:40:20;15.10;99.90
37642;DHT22;23486;51.956;5.888;2023-07-13T03:42:46;15.10;99.90
37642;DHT22;23486;51.956;5.888;2023-07-13T03:45:12;15.10;99.90
37642;DHT22;23486;51.956;5.888;2023-07-13T03:47:38;15.10;99.90
37642;DHT22;23486;51.956;5.888;2023-07-13T03:50:04;15.00;99.90
37642;DHT22;23486;51.956;5.888;2023-07-13T03:52:29;15.10;99.90
37642;DHT22;23486;51.956;5.888;2023-07-13T03:54:55;15.10;99.90
37642;DHT22;23486;51.956;5.888;2023-07-13T03:57:21;15.00;99.90
37642;DHT22;23486;51.956;5.888;2023-07-13T03:59:46;15.00;99.90
37642;DHT22;23486;51.956;5.888;2023-07-13T04:02:12;15.10;99.90
37642;DHT22;23486;51.956;5.888;2023-07-13T04:04:38;15.00;99.90
37642;DHT22;23486;51.956;5.888;2023-07-13T04:07:06;15.10;99.90
37642;DHT22;23486;51.956;5.888;2023-07-13T04:09:34;15.10;99.90
37642;DHT22;23486;51.956;5.888;2023-07-13T04:11:59;15.10;99.90
37642;DHT22;23486;51.956;5.888;2023-07-13T04:14:25;15.10;99.90
37642;DHT22;23486;51.956;5.888;2023-07-13T04:16:51;15.10;99.90
37642;DHT22;23486;51.956;5.888;2023-07-13T04:19:16;15.10;99.90
37642;DHT22;23486;51.956;5.888;2023-07-13T04:21:42;15.10;99.90
37642;DHT22;23486;51.956;5.888;2023-07-13T04:24:08;15.10;99.90
37642;DHT22;23486;51.956;5.888;2023-07-13T04:26:34;15.20;99.90
37642;DHT22;23486;51.956;5.888;2023-07-13T04:29:04;15.20;99.90
37642;DHT22;23486;51.956;5.888;2023-07-13T04:31:30;15.20;99.90
37642;DHT22;23486;51.956;5.888;2023-07-13T04:33:56;15.30;99.90
37642;DHT22;23486;51.956;5.888;2023-07-13T04:36:22;15.40;99.90
37642;DHT22;23486;51.956;5.888;2023-07-13T04:38:48;15.40;99.90
37642;DHT22;23486;51.956;5.888;2023-07-13T04:41:14;15.50;99.90
37642;DHT22;23486;51.956;5.888;2023-07-13T04:43:41;15.50;99.90
37642;DHT22;23486;51.956;5.888;2023-07-13T04:46:08;15.50;99.90
37642;DHT22;23486;51.956;5.888;2023-07-13T04:48:35;15.50;99.90
37642;DHT22;23486;51.956;5.888;2023-07-13T04:51:01;15.50;99.90
37642;DHT22;23486;51.956;5.888;2023-07-13T04:53:27;15.50;99.90
37642;DHT22;23486;51.956;5.888;2023-07-13T04:55:53;15.50;99.90
37642;DHT22;23486;51.956;5.888;2023-07-13T04:58:19;15.50;99.90
37642;DHT22;23486;51.956;5.888;2023-07-13T05:00:45;15.50;99.90
37642;DHT22;23486;51.956;5.888;2023-07-13T05:03:10;15.60;99.90
37642;DHT22;23486;51.956;5.888;2023-07-13T05:05:36;15.60;99.90
37642;DHT22;23486;51.956;5.888;2023-07-13T05:08:02;15.70;99.90
37642;DHT22;23486;51.956;5.888;2023-07-13T05:10:28;15.70;99.90
37642;DHT22;23486;51.956;5.888;2023-07-13T05:12:53;15.80;99.90
37642;DHT22;23486;51.956;5.888;2023-07-13T05:15:21;15.90;99.90
37642;DHT22;23486;51.956;5.888;2023-07-13T05:17:48;15.90;99.90
37642;DHT22;23486;51.956;5.888;2023-07-13T05:20:15;16.00;99.90
37642;DHT22;23486;51.956;5.888;2023-07-13T05:22:42;16.00;99.90
37642;DHT22;23486;51.956;5.888;2023-07-13T05:25:08;16.10;99.90
37642;DHT22;23486;51.956;5.888;2023-07-13T05:27:35;16.10;99.90
37642;DHT22;23486;51.956;5.888;2023-07-13T05:30:02;16.20;99.90
37642;DHT22;23486;51.956;5.888;2023-07-13T05:32:28;16.20;99.90
37642;DHT22;23486;51.956;5.888;2023-07-13T05:34:54;16.30;99.90
37642;DHT22;23486;51.956;5.888;2023-07-13T05:37:20;16.30;99.90
37642;DHT22;23486;51.956;5.888;2023-07-13T05:39:45;16.30;99.90
37642;DHT22;23486;51.956;5.888;2023-07-13T05:42:12;16.40;99.90
37642;DHT22;23486;51.956;5.888;2023-07-13T05:44:38;16.40;99.90
37642;DHT22;23486;51.956;5.888;2023-07-13T05:47:04;16.50;99.90
37642;DHT22;23486;51.956;5.888;2023-07-13T05:49:30;16.60;99.90
37642;DHT22;23486;51.956;5.888;2023-07-13T05:51:57;16.60;99.90
37642;DHT22;23486;51.956;5.888;2023-07-13T05:54:22;16.70;99.90
37642;DHT22;23486;51.956;5.888;2023-07-13T05:56:48;16.80;99.90
37642;DHT22;23486;51.956;5.888;2023-07-13T05:59:14;16.90;99.90
37642;DHT22;23486;51.956;5.888;2023-07-13T06:01:40;17.00;99.90
37642;DHT22;23486;51.956;5.888;2023-07-13T06:04:06;17.00;99.90
37642;DHT22;23486;51.956;5.888;2023-07-13T06:06:32;17.10;99.90
37642;DHT22;23486;51.956;5.888;2023-07-13T06:08:58;17.10;99.90
37642;DHT22;23486;51.956;5.888;2023-07-13T06:11:25;17.20;99.90
37642;DHT22;23486;51.956;5.888;2023-07-13T06:13:51;17.30;99.90
37642;DHT22;23486;51.956;5.888;2023-07-13T06:16:18;17.30;99.90
37642;DHT22;23486;51.956;5.888;2023-07-13T06:18:44;17.40;99.90
37642;DHT22;23486;51.956;5.888;2023-07-13T06:21:15;17.40;99.90
37642;DHT22;23486;51.956;5.888;2023-07-13T06:23:41;17.50;99.90
37642;DHT22;23486;51.956;5.888;2023-07-13T06:26:07;17.50;99.90
37642;DHT22;23486;51.956;5.888;2023-07-13T06:28:34;17.60;99.90
37642;DHT22;23486;51.956;5.888;2023-07-13T06:31:00;17.60;99.90
37642;DHT22;23486;51.956;5.888;2023-07-13T06:33:27;17.60;99.90
37642;DHT22;23486;51.956;5.888;2023-07-13T06:35:52;17.70;99.90
37642;DHT22;23486;51.956;5.888;2023-07-13T06:38:20;17.80;99.90
37642;DHT22;23486;51.956;5.888;2023-07-13T06:40:46;17.90;99.90
37642;DHT22;23486;51.956;5.888;2023-07-13T06:43:11;18.00;99.90
37642;DHT22;23486;51.956;5.888;2023-07-13T06:45:45;18.00;99.90
37642;DHT22;23486;51.956;5.888;2023-07-13T06:48:13;18.20;99.90
37642;DHT22;23486;51.956;5.888;2023-07-13T06:50:39;18.30;99.90
37642;DHT22;23486;51.956;5.888;2023-07-13T06:53:04;18.30;99.90
37642;DHT22;23486;51.956;5.888;2023-07-13T06:55:30;18.20;99.90
37642;DHT22;23486;51.956;5.888;2023-07-13T06:57:56;18.20;99.90
37642;DHT22;23486;51.956;5.888;2023-07-13T07:00:22;18.30;99.90
37642;DHT22;23486;51.956;5.888;2023-07-13T07:02:48;18.40;99.90
37642;DHT22;23486;51.956;5.888;2023-07-13T07:05:14;18.40;99.90
37642;DHT22;23486;51.956;5.888;2023-07-13T07:07:39;18.50;99.90
37642;DHT22;23486;51.956;5.888;2023-07-13T07:10:05;18.70;99.90
37642;DHT22;23486;51.956;5.888;2023-07-13T07:12:31;18.90;99.90
37642;DHT22;23486;51.956;5.888;2023-07-13T07:14:57;19.00;99.90
37642;DHT22;23486;51.956;5.888;2023-07-13T07:17:23;19.10;99.90
37642;DHT22;23486;51.956;5.888;2023-07-13T07:19:48;19.30;99.90
37642;DHT22;23486;51.956;5.888;2023-07-13T07:22:14;19.50;99.90
37642;DHT22;23486;51.956;5.888;2023-07-13T07:24:40;19.60;99.90
37642;DHT22;23486;51.956;5.888;2023-07-13T07:27:05;19.80;99.90
37642;DHT22;23486;51.956;5.888;2023-07-13T07:29:31;19.80;99.90
37642;DHT22;23486;51.956;5.888;2023-07-13T07:31:59;19.90;99.90
37642;DHT22;23486;51.956;5.888;2023-07-13T07:34:25;20.00;99.90
37642;DHT22;23486;51.956;5.888;2023-07-13T07:36:51;20.10;99.90
37642;DHT22;23486;51.956;5.888;2023-07-13T07:39:17;20.10;99.90
37642;DHT22;23486;51.956;5.888;2023-07-13T07:41:42;20.10;99.90
37642;DHT22;23486;51.956;5.888;2023-07-13T07:44:08;20.20;99.90
37642;DHT22;23486;51.956;5.888;2023-07-13T07:46:35;20.20;99.90
37642;DHT22;23486;51.956;5.888;2023-07-13T07:49:01;20.20;99.90
37642;DHT22;23486;51.956;5.888;2023-07-13T07:51:26;20.10;99.90
37642;DHT22;23486;51.956;5.888;2023-07-13T07:53:52;20.00;99.90
37642;DHT22;23486;51.956;5.888;2023-07-13T07:56:18;20.10;99.90
37642;DHT22;23486;51.956;5.888;2023-07-13T07:58:43;20.20;99.90
37642;DHT22;23486;51.956;5.888;2023-07-13T08:01:09;20.10;99.90
37642;DHT22;23486;51.956;5.888;2023-07-13T08:03:35;20.10;99.90
37642;DHT22;23486;51.956;5.888;2023-07-13T08:06:01;20.30;99.90
37642;DHT22;23486;51.956;5.888;2023-07-13T08:08:27;20.50;99.90
37642;DHT22;23486;51.956;5.888;2023-07-13T08:10:53;20.40;99.90
37642;DHT22;23486;51.956;5.888;2023-07-13T08:13:19;20.40;99.90
37642;DHT22;23486;51.956;5.888;2023-07-13T08:15:45;20.40;99.90
37642;DHT22;23486;51.956;5.888;2023-07-13T08:18:11;20.40;99.90
37642;DHT22;23486;51.956;5.888;2023-07-13T08:20:40;20.50;99.90
37642;DHT22;23486;51.956;5.888;2023-07-13T08:23:07;20.60;99.90
37642;DHT22;23486;51.956;5.888;2023-07-13T08:25:35;20.60;99.90
37642;DHT22;23486;51.956;5.888;2023-07-13T08:28:01;20.60;99.90
37642;DHT22;23486;51.956;5.888;2023-07-13T08:30:27;20.60;99.90
37642;DHT22;23486;51.956;5.888;2023-07-13T08:32:54;20.60;99.90
37642;DHT22;23486;51.956;5.888;2023-07-13T08:35:20;20.70;99.90
37642;DHT22;23486;51.956;5.888;2023-07-13T08:37:45;20.90;99.90
37642;DHT22;23486;51.956;5.888;2023-07-13T08:40:12;21.00;99.90
37642;DHT22;23486;51.956;5.888;2023-07-13T08:45:28;21.40;99.90
37642;DHT22;23486;51.956;5.888;2023-07-13T08:48:05;21.60;99.90
37642;DHT22;23486;51.956;5.888;2023-07-13T08:50:37;21.70;99.90
37642;DHT22;23486;51.956;5.888;2023-07-13T08:53:09;21.80;99.90
37642;DHT22;23486;51.956;5.888;2023-07-13T08:55:37;21.90;99.90
37642;DHT22;23486;51.956;5.888;2023-07-13T08:58:16;21.70;99.90
37642;DHT22;23486;51.956;5.888;2023-07-13T09:01:06;21.50;99.90
37642;DHT22;23486;51.956;5.888;2023-07-13T09:03:50;21.20;99.90
37642;DHT22;23486;51.956;5.888;2023-07-13T09:06:23;21.00;99.90
37642;DHT22;23486;51.956;5.888;2023-07-13T09:09:18;20.90;99.90
37642;DHT22;23486;51.956;5.888;2023-07-13T09:11:52;20.90;99.90
37642;DHT22;23486;51.956;5.888;2023-07-13T09:15:24;21.10;99.90
37642;DHT22;23486;51.956;5.888;2023-07-13T09:17:27;21.40;99.90
37642;DHT22;23486;51.956;5.888;2023-07-13T09:20:00;21.80;99.90
37642;DHT22;23486;51.956;5.888;2023-07-13T09:22:26;21.90;99.80
37642;DHT22;23486;51.956;5.888;2023-07-13T09:25:00;22.00;99.50
37642;DHT22;23486;51.956;5.888;2023-07-13T09:27:39;22.00;99.40
37642;DHT22;23486;51.956;5.888;2023-07-13T09:32:47;22.00;98.20
37642;DHT22;23486;51.956;5.888;2023-07-13T09:35:19;21.80;98.40
37642;DHT22;23486;51.956;5.888;2023-07-13T09:37:45;21.70;98.80
37642;DHT22;23486;51.956;5.888;2023-07-13T09:40:21;21.40;99.10
37642;DHT22;23486;51.956;5.888;2023-07-13T09:42:52;21.10;99.90
37642;DHT22;23486;51.956;5.888;2023-07-13T09:45:27;20.80;99.90
37642;DHT22;23486;51.956;5.888;2023-07-13T09:48:15;20.60;99.90
37642;DHT22;23486;51.956;5.888;2023-07-13T09:50:41;20.50;99.90
37642;DHT22;23486;51.956;5.888;2023-07-13T09:53:15;20.30;99.90
37642;DHT22;23486;51.956;5.888;2023-07-13T09:55:44;20.30;99.90
37642;DHT22;23486;51.956;5.888;2023-07-13T10:00:40;20.30;99.90
37642;DHT22;23486;51.956;5.888;2023-07-13T10:03:19;20.30;99.90
37642;DHT22;23486;51.956;5.888;2023-07-13T10:05:46;20.40;99.90
37642;DHT22;23486;51.956;5.888;2023-07-13T10:08:23;20.30;99.90
37642;DHT22;23486;51.956;5.888;2023-07-13T10:11:12;20.30;99.90
37642;DHT22;23486;51.956;5.888;2023-07-13T10:13:43;20.20;99.90
37642;DHT22;23486;51.956;5.888;2023-07-13T10:16:09;20.20;99.90
37642;DHT22;23486;51.956;5.888;2023-07-13T10:18:45;20.10;99.90
37642;DHT22;23486;51.956;5.888;2023-07-13T10:21:16;20.20;99.90
37642;DHT22;23486;51.956;5.888;2023-07-13T10:23:43;20.40;99.90
37642;DHT22;23486;51.956;5.888;2023-07-13T10:26:15;20.60;99.90
37642;DHT22;23486;51.956;5.888;2023-07-13T10:28:44;20.80;99.90
37642;DHT22;23486;51.956;5.888;2023-07-13T10:31:14;21.00;99.90
37642;DHT22;23486;51.956;5.888;2023-07-13T10:33:40;21.30;99.90
37642;DHT22;23486;51.956;5.888;2023-07-13T10:36:34;21.40;99.90
37642;DHT22;23486;51.956;5.888;2023-07-13T10:39:04;21.50;99.90
37642;DHT22;23486;51.956;5.888;2023-07-13T10:41:35;21.60;99.90
37642;DHT22;23486;51.956;5.888;2023-07-13T10:44:04;21.60;99.90
37642;DHT22;23486;51.956;5.888;2023-07-13T10:46:30;21.60;99.90
37642;DHT22;23486;51.956;5.888;2023-07-13T10:49:03;21.50;99.90
37642;DHT22;23486;51.956;5.888;2023-07-13T10:51:30;21.10;99.90
37642;DHT22;23486;51.956;5.888;2023-07-13T10:54:26;20.60;99.90
37642;DHT22;23486;51.956;5.888;2023-07-13T10:59:35;19.60;99.90
37642;DHT22;23486;51.956;5.888;2023-07-13T11:05:13;19.90;99.90
37642;DHT22;23486;51.956;5.888;2023-07-13T11:08:12;20.20;99.90
37642;DHT22;23486;51.956;5.888;2023-07-13T11:11:50;20.60;99.90
37642;DHT22;23486;51.956;5.888;2023-07-13T11:18:48;21.20;99.90
37642;DHT22;23486;51.956;5.888;2023-07-13T11:22:00;21.40;99.90
37642;DHT22;23486;51.956;5.888;2023-07-13T11:24:04;21.40;99.90
37642;DHT22;23486;51.956;5.888;2023-07-13T11:31:59;21.40;99.90
37642;DHT22;23486;51.956;5.888;2023-07-13T11:34:31;21.40;99.90
37642;DHT22;23486;51.956;5.888;2023-07-13T11:37:00;21.50;99.90
37642;DHT22;23486;51.956;5.888;2023-07-13T11:39:33;21.60;99.90
37642;DHT22;23486;51.956;5.888;2023-07-13T11:42:05;21.70;99.90
37642;DHT22;23486;51.956;5.888;2023-07-13T11:44:33;21.60;99.90
37642;DHT22;23486;51.956;5.888;2023-07-13T11:47:11;21.70;99.90
37642;DHT22;23486;51.956;5.888;2023-07-13T11:49:45;21.80;99.90
37642;DHT22;23486;51.956;5.888;2023-07-13T11:52:19;22.00;99.90
37642;DHT22;23486;51.956;5.888;2023-07-13T11:54:52;22.10;99.90
37642;DHT22;23486;51.956;5.888;2023-07-13T11:59:52;22.40;99.90
37642;DHT22;23486;51.956;5.888;2023-07-13T12:02:40;22.30;99.90
37642;DHT22;23486;51.956;5.888;2023-07-13T12:05:11;22.10;99.90
37642;DHT22;23486;51.956;5.888;2023-07-13T12:07:38;21.90;99.90
37642;DHT22;23486;51.956;5.888;2023-07-13T12:12:54;21.30;99.90
37642;DHT22;23486;51.956;5.888;2023-07-13T12:15:21;21.10;99.90
37642;DHT22;23486;51.956;5.888;2023-07-13T12:17:48;21.00;99.90
37642;DHT22;23486;51.956;5.888;2023-07-13T12:20:26;21.10;99.90
37642;DHT22;23486;51.956;5.888;2023-07-13T12:22:52;21.00;99.90
37642;DHT22;23486;51.956;5.888;2023-07-13T12:25:19;21.00;99.90
37642;DHT22;23486;51.956;5.888;2023-07-13T12:27:49;21.00;99.90
37642;DHT22;23486;51.956;5.888;2023-07-13T12:30:36;21.40;99.90
37642;DHT22;23486;51.956;5.888;2023-07-13T12:33:07;21.80;99.90
37642;DHT22;23486;51.956;5.888;2023-07-13T12:35:42;22.10;99.90
37642;DHT22;23486;51.956;5.888;2023-07-13T12:38:10;22.40;99.90
37642;DHT22;23486;51.956;5.888;2023-07-13T12:40:37;22.70;99.90
37642;DHT22;23486;51.956;5.888;2023-07-13T12:43:04;23.00;99.90
37642;DHT22;23486;51.956;5.888;2023-07-13T12:45:32;23.30;99.90
37642;DHT22;23486;51.956;5.888;2023-07-13T12:48:03;23.40;99.90
37642;DHT22;23486;51.956;5.888;2023-07-13T12:50:41;23.60;99.90
37642;DHT22;23486;51.956;5.888;2023-07-13T12:53:15;23.70;99.90
37642;DHT22;23486;51.956;5.888;2023-07-13T12:55:46;23.50;99.90
37642;DHT22;23486;51.956;5.888;2023-07-13T13:00:59;23.10;99.90
37642;DHT22;23486;51.956;5.888;2023-07-13T13:03:33;23.00;99.90
37642;DHT22;23486;51.956;5.888;2023-07-13T13:06:06;22.80;99.90
37642;DHT22;23486;51.956;5.888;2023-07-13T13:08:53;23.00;99.90
37642;DHT22;23486;51.956;5.888;2023-07-13T13:11:19;23.30;99.90
37642;DHT22;23486;51.956;5.888;2023-07-13T13:13:45;23.70;99.90
37642;DHT22;23486;51.956;5.888;2023-07-13T13:18:52;24.00;99.90
37642;DHT22;23486;51.956;5.888;2023-07-13T13:21:18;24.00;99.90
37642;DHT22;23486;51.956;5.888;2023-07-13T13:23:45;24.20;99.90
37642;DHT22;23486;51.956;5.888;2023-07-13T13:26:13;24.40;99.90
37642;DHT22;23486;51.956;5.888;2023-07-13T13:28:45;24.50;99.90
37642;DHT22;23486;51.956;5.888;2023-07-13T13:31:13;24.50;99.90
37642;DHT22;23486;51.956;5.888;2023-07-13T13:33:41;24.40;99.90
37642;DHT22;23486;51.956;5.888;2023-07-13T13:36:19;24.40;99.90
37642;DHT22;23486;51.956;5.888;2023-07-13T13:38:47;24.60;99.90
37642;DHT22;23486;51.956;5.888;2023-07-13T13:41:13;24.70;99.40
37642;DHT22;23486;51.956;5.888;2023-07-13T13:43:41;24.40;96.80
37642;DHT22;23486;51.956;5.888;2023-07-13T13:46:22;24.10;97.60
37642;DHT22;23486;51.956;5.888;2023-07-13T13:48:50;23.80;96.40
37642;DHT22;23486;51.956;5.888;2023-07-13T13:51:21;23.80;97.40
37642;DHT22;23486;51.956;5.888;2023-07-13T13:53:49;24.10;98.60
37642;DHT22;23486;51.956;5.888;2023-07-13T13:56:18;24.40;98.20
37642;DHT22;23486;51.956;5.888;2023-07-13T13:58:44;24.30;98.00
37642;DHT22;23486;51.956;5.888;2023-07-13T14:01:19;24.30;98.50
37642;DHT22;23486;51.956;5.888;2023-07-13T14:03:45;24.40;99.40
37642;DHT22;23486;51.956;5.888;2023-07-13T14:06:13;24.70;96.60
37642;DHT22;23486;51.956;5.888;2023-07-13T14:08:39;24.70;95.40
37642;DHT22;23486;51.956;5.888;2023-07-13T14:11:05;24.70;94.30
37642;DHT22;23486;51.956;5.888;2023-07-13T14:13:37;24.70;93.70
37642;DHT22;23486;51.956;5.888;2023-07-13T14:16:16;24.80;96.10
37642;DHT22;23486;51.956;5.888;2023-07-13T14:18:46;24.90;97.20
37642;DHT22;23486;51.956;5.888;2023-07-13T14:21:20;24.90;95.70
37642;DHT22;23486;51.956;5.888;2023-07-13T14:23:46;24.80;95.60
37642;DHT22;23486;51.956;5.888;2023-07-13T14:26:21;24.70;97.30
37642;DHT22;23486;51.956;5.888;2023-07-13T14:28:49;24.70;96.50
37642;DHT22;23486;51.956;5.888;2023-07-13T14:31:16;24.80;97.40
37642;DHT22;23486;51.956;5.888;2023-07-13T14:33:43;24.70;94.60
37642;DHT22;23486;51.956;5.888;2023-07-13T14:36:36;24.60;95.00
37642;DHT22;23486;51.956;5.888;2023-07-13T14:39:21;24.50;94.40
37642;DHT22;23486;51.956;5.888;2023-07-13T14:41:53;24.40;94.50
37642;DHT22;23486;51.956;5.888;2023-07-13T14:44:27;24.30;94.10
37642;DHT22;23486;51.956;5.888;2023-07-13T14:46:58;24.10;90.80
37642;DHT22;23486;51.956;5.888;2023-07-13T14:54:43;24.10;93.60
37642;DHT22;23486;51.956;5.888;2023-07-13T14:59:38;23.90;91.90
37642;DHT22;23486;51.956;5.888;2023-07-13T15:04:39;23.80;93.30
37642;DHT22;23486;51.956;5.888;2023-07-13T15:07:05;23.80;93.30
37642;DHT22;23486;51.956;5.888;2023-07-13T15:09:30;23.90;93.30
37642;DHT22;23486;51.956;5.888;2023-07-13T15:11:56;23.90;91.80
37642;DHT22;23486;51.956;5.888;2023-07-13T15:14:22;23.80;92.40
37642;DHT22;23486;51.956;5.888;2023-07-13T15:16:53;23.90;92.20
37642;DHT22;23486;51.956;5.888;2023-07-13T15:19:19;23.80;91.60
37642;DHT22;23486;51.956;5.888;2023-07-13T15:21:47;23.70;91.80
37642;DHT22;23486;51.956;5.888;2023-07-13T15:24:13;23.70;91.60
37642;DHT22;23486;51.956;5.888;2023-07-13T15:26:39;23.60;92.00
37642;DHT22;23486;51.956;5.888;2023-07-13T15:29:05;23.60;92.30
37642;DHT22;23486;51.956;5.888;2023-07-13T15:31:32;23.60;92.00
37642;DHT22;23486;51.956;5.888;2023-07-13T15:33:59;23.40;91.80
37642;DHT22;23486;51.956;5.888;2023-07-13T15:36:26;23.30;91.70
37642;DHT22;23486;51.956;5.888;2023-07-13T15:38:53;23.30;92.00
37642;DHT22;23486;51.956;5.888;2023-07-13T15:41:22;23.20;92.10
37642;DHT22;23486;51.956;5.888;2023-07-13T15:43:52;23.20;92.30
37642;DHT22;23486;51.956;5.888;2023-07-13T15:46:20;23.20;91.80
37642;DHT22;23486;51.956;5.888;2023-07-13T15:48:48;23.20;92.00
37642;DHT22;23486;51.956;5.888;2023-07-13T15:51:26;23.20;92.10
37642;DHT22;23486;51.956;5.888;2023-07-13T15:53:55;23.20;92.10
37642;DHT22;23486;51.956;5.888;2023-07-13T15:56:26;23.20;92.40
37642;DHT22;23486;51.956;5.888;2023-07-13T15:58:54;23.20;92.50
37642;DHT22;23486;51.956;5.888;2023-07-13T16:01:20;23.30;92.50
37642;DHT22;23486;51.956;5.888;2023-07-13T16:03:47;23.40;92.60
37642;DHT22;23486;51.956;5.888;2023-07-13T16:06:21;23.60;92.80
37642;DHT22;23486;51.956;5.888;2023-07-13T16:08:49;23.90;92.10
37642;DHT22;23486;51.956;5.888;2023-07-13T16:11:22;23.90;91.10
37642;DHT22;23486;51.956;5.888;2023-07-13T16:13:49;24.00;88.70
37642;DHT22;23486;51.956;5.888;2023-07-13T16:16:21;24.00;90.60
37642;DHT22;23486;51.956;5.888;2023-07-13T16:18:58;24.00;90.30
37642;DHT22;23486;51.956;5.888;2023-07-13T16:21:27;24.10;89.80
37642;DHT22;23486;51.956;5.888;2023-07-13T16:23:54;24.10;90.20
37642;DHT22;23486;51.956;5.888;2023-07-13T16:26:27;24.10;90.50